Terminal Aerodrome Forecast
Issued by NWS

Home | Current Version | Previous Version | Text Only | Print | Product List | Glossary On
Versions: 1 2 3 4 5 6 7 8 9 10 11 12 13 14 15 16 17 18 19
000
FTUS42 KJAX 260540
TAFVQQ
TAF
KVQQ 260540Z 2606/2706 VRB03KT P6SM BKN050
     FM260800 00000KT 4SM BR SCT050 BKN100
     FM261300 14005KT P6SM SCT045 BKN120
     FM261600 11007KT P6SM SCT040 BKN100
     FM270300 12003KT P6SM SCT250=

USA.gov is the U.S. government's official web portal to all federal, state and local government web resources and services.